Time;durP1;ratioP1;P1;durP2;ratioP2;P2;SDS_P1;SDS_P2;PMS_P1;PMS_P2;Temp;Humidity;BMP_temperature;BMP_pressure;BME280_temperature;BME280_humidity;BME280_pressure;Samples;Min_cycle;Max_cycle;Signal;HPM_P1;HPM_P2
2022/11/29 00:00:57;;;;;;;32.77;16.27;;;;;;;;;;5059520;28;20017;-78
2022/11/29 00:03:23;;;;;;;26.80;16.10;;;;;;;;;;5045805;28;20115;-79
2022/11/29 00:05:50;;;;;;;27.40;15.47;;;;;;;;;;5045862;28;20036;-79
2022/11/29 00:08:16;;;;;;;26.10;14.83;;;;;;;;;;5044420;28;20120;-79
2022/11/29 00:10:42;;;;;;;25.50;13.47;;;;;;;;;;5060008;28;20037;-78
2022/11/29 00:13:09;;;;;;;33.70;14.33;;;;;;;;;;5046442;28;20071;-79
2022/11/29 00:15:35;;;;;;;32.03;14.57;;;;;;;;;;5056005;28;20040;-78
2022/11/29 00:18:04;;;;;;;20.40;12.67;;;;;;;;;;5047596;28;20051;-79
2022/11/29 00:20:30;;;;;;;29.33;14.37;;;;;;;;;;5060984;28;20461;-77
2022/11/29 00:22:56;;;;;;;22.30;13.17;;;;;;;;;;5045650;28;20052;-78
2022/11/29 00:25:22;;;;;;;33.30;14.67;;;;;;;;;;5047449;28;20044;-78
2022/11/29 00:27:50;;;;;;;31.97;14.00;;;;;;;;;;5043402;28;20042;-79
2022/11/29 00:30:16;;;;;;;30.20;13.33;;;;;;;;;;5062310;28;20037;-78
2022/11/29 00:32:42;;;;;;;23.13;13.10;;;;;;;;;;5042552;28;20112;-78
2022/11/29 00:35:08;;;;;;;29.97;12.73;;;;;;;;;;5049614;28;20041;-79
2022/11/29 00:37:34;;;;;;;25.83;13.37;;;;;;;;;;5042953;28;20032;-79
2022/11/29 00:40:00;;;;;;;23.83;13.73;;;;;;;;;;5045127;28;20044;-78
2022/11/29 00:42:26;;;;;;;30.23;13.17;;;;;;;;;;5059383;28;20032;-79
2022/11/29 00:44:55;;;;;;;26.90;12.77;;;;;;;;;;5054116;28;20040;-79
2022/11/29 00:47:21;;;;;;;24.87;13.67;;;;;;;;;;5058073;28;20034;-79
2022/11/29 00:49:47;;;;;;;23.80;13.97;;;;;;;;;;5044667;28;20451;-78
2022/11/29 00:52:13;;;;;;;28.83;13.90;;;;;;;;;;5057510;28;20156;-78
2022/11/29 00:54:39;;;;;;;22.43;13.17;;;;;;;;;;5043684;28;20040;-78
2022/11/29 00:57:05;;;;;;;25.37;14.57;;;;;;;;;;5043480;28;20029;-79
2022/11/29 00:59:31;;;;;;;25.93;13.93;;;;;;;;;;5053812;28;20041;-78
2022/11/29 01:01:57;;;;;;;29.00;12.93;;;;;;;;;;5059295;28;20017;-79
2022/11/29 01:04:23;;;;;;;23.83;12.33;;;;;;;;;;5046505;28;20029;-79
2022/11/29 01:06:52;;;;;;;27.53;12.90;;;;;;;;;;5045781;28;20044;-79
2022/11/29 01:09:19;;;;;;;27.40;14.47;;;;;;;;;;5043702;28;20061;-79
2022/11/29 01:11:45;;;;;;;20.97;12.90;;;;;;;;;;5058287;28;20044;-79
2022/11/29 01:14:11;;;;;;;25.83;13.20;;;;;;;;;;5041264;28;20183;-78
2022/11/29 01:16:37;;;;;;;22.93;13.43;;;;;;;;;;5038383;28;20334;-78
2022/11/29 01:19:06;;;;;;;31.90;13.20;;;;;;;;;;5041312;28;20021;-79
2022/11/29 01:21:32;;;;;;;21.33;12.50;;;;;;;;;;5067781;28;20021;-79
2022/11/29 01:24:00;;;;;;;24.20;13.53;;;;;;;;;;5047264;28;20030;-80
2022/11/29 01:26:28;;;;;;;30.03;14.07;;;;;;;;;;5050563;28;20086;-79
2022/11/29 01:28:54;;;;;;;25.10;14.23;;;;;;;;;;5052386;28;20024;-78
2022/11/29 01:31:22;;;;;;;31.30;14.40;;;;;;;;;;5054627;28;20029;-79
2022/11/29 01:33:48;;;;;;;23.77;13.77;;;;;;;;;;5039648;28;20036;-79
2022/11/29 01:36:14;;;;;;;25.80;13.17;;;;;;;;;;5053321;28;20021;-80
2022/11/29 01:38:44;;;;;;;29.40;14.73;;;;;;;;;;5052623;28;20021;-79
2022/11/29 01:41:12;;;;;;;35.63;14.80;;;;;;;;;;5038198;28;20022;-78
2022/11/29 01:43:54;;;;;;;30.97;13.63;;;;;;;;;;5068238;28;20035;-78
2022/11/29 01:46:20;;;;;;;27.67;14.20;;;;;;;;;;5058110;28;20033;-78
2022/11/29 01:48:46;;;;;;;24.17;13.90;;;;;;;;;;5057688;28;20021;-79
2022/11/29 01:51:12;;;;;;;25.17;13.70;;;;;;;;;;5051039;28;20036;-79
2022/11/29 01:53:39;;;;;;;24.67;13.63;;;;;;;;;;5062597;28;20384;-79
2022/11/29 01:56:06;;;;;;;25.07;15.77;;;;;;;;;;5055690;28;20083;-78
2022/11/29 01:58:32;;;;;;;33.73;16.33;;;;;;;;;;5046160;28;20083;-79
2022/11/29 02:01:00;;;;;;;40.27;16.67;;;;;;;;;;5079352;28;20025;-78
2022/11/29 02:03:26;;;;;;;25.00;16.23;;;;;;;;;;5057743;28;20052;-79
2022/11/29 02:05:53;;;;;;;35.97;16.70;;;;;;;;;;5056720;28;20037;-78
2022/11/29 02:08:31;;;;;;;32.93;15.73;;;;;;;;;;5053469;28;20029;-78
2022/11/29 02:11:06;;;;;;;31.40;16.60;;;;;;;;;;5053328;28;20033;-80
2022/11/29 02:13:38;;;;;;;26.90;15.97;;;;;;;;;;5067190;28;20041;-79
2022/11/29 02:16:09;;;;;;;24.13;15.55;;;;;;;;;;5056856;28;20025;-79
2022/11/29 02:18:43;;;;;;;32.93;15.50;;;;;;;;;;5042408;28;20120;-78
2022/11/29 02:21:28;;;;;;;27.17;14.10;;;;;;;;;;5046768;28;20033;-79
2022/11/29 02:23:57;;;;;;;26.27;14.70;;;;;;;;;;5055621;28;20095;-80
2022/11/29 02:26:35;;;;;;;28.23;15.13;;;;;;;;;;5037336;28;20060;-79
2022/11/29 02:29:04;;;;;;;30.17;14.60;;;;;;;;;;5051855;28;20029;-79
2022/11/29 02:31:49;;;;;;;28.47;14.97;;;;;;;;;;5051914;28;20040;-79
2022/11/29 02:34:24;;;;;;;23.73;13.60;;;;;;;;;;5052908;28;20025;-79
2022/11/29 02:36:53;;;;;;;25.27;13.80;;;;;;;;;;5050645;28;20026;-78
2022/11/29 02:39:38;;;;;;;28.87;14.83;;;;;;;;;;5085317;28;20095;-79
2022/11/29 02:42:06;;;;;;;31.40;14.90;;;;;;;;;;5056650;28;20032;-79
2022/11/29 02:44:38;;;;;;;24.67;13.63;;;;;;;;;;5053153;28;20030;-79
2022/11/29 02:47:12;;;;;;;27.38;16.02;;;;;;;;;;5061057;28;20029;-80
2022/11/29 02:49:57;;;;;;;33.30;17.10;;;;;;;;;;5051144;28;20033;-78
2022/11/29 02:52:36;;;;;;;28.50;15.77;;;;;;;;;;5067003;28;20101;-79
2022/11/29 02:55:08;;;;;;;30.23;17.10;;;;;;;;;;5056396;28;20033;-80
2022/11/29 02:57:37;;;;;;;40.33;18.35;;;;;;;;;;5055041;28;20461;-78
2022/11/29 03:00:06;;;;;;;33.17;17.20;;;;;;;;;;5060838;28;20357;-79
2022/11/29 03:02:51;;;;;;;42.80;18.83;;;;;;;;;;5056587;28;20021;-79
2022/11/29 03:05:36;;;;;;;39.00;18.90;;;;;;;;;;5043780;28;20185;-78
2022/11/29 03:08:11;;;;;;;47.37;20.63;;;;;;;;;;5055481;28;20450;-79
2022/11/29 03:10:52;;;;;;;45.53;19.97;;;;;;;;;;5047013;28;20026;-79
2022/11/29 03:13:24;;;;;;;44.13;19.03;;;;;;;;;;5053924;28;20032;-79
2022/11/29 03:15:50;;;;;;;;;;;;;;;;;;5066855;28;20020;-78
2022/11/29 03:18:55;;;;;;;53.57;21.07;;;;;;;;;;5056544;28;19912;-79
2022/11/29 03:21:41;;;;;;;51.50;23.07;;;;;;;;;;4978891;28;20038;-79
2022/11/29 03:24:30;;;;;;;43.70;21.40;;;;;;;;;;4995027;28;20137;-79
2022/11/29 03:27:00;;;;;;;52.97;23.40;;;;;;;;;;5055096;28;20037;-79
2022/11/29 03:29:32;;;;;;;54.53;22.07;;;;;;;;;;5045672;28;20456;-79
2022/11/29 03:32:01;;;;;;;44.15;21.58;;;;;;;;;;5051850;28;20037;-79
2022/11/29 03:34:39;;;;;;;51.53;23.13;;;;;;;;;;5035075;28;20361;-78
2022/11/29 03:37:12;;;;;;;50.03;24.03;;;;;;;;;;5055945;28;20099;-79
2022/11/29 03:39:44;;;;;;;46.40;22.65;;;;;;;;;;5066362;28;20037;-78
2022/11/29 03:42:19;;;;;;;55.60;24.52;;;;;;;;;;5052930;28;20036;-78
2022/11/29 03:45:07;;;;;;;50.27;25.00;;;;;;;;;;5051935;28;20021;-78
2022/11/29 03:47:36;;;;;;;60.03;26.77;;;;;;;;;;5054018;28;20013;-79
2022/11/29 03:50:10;;;;;;;56.87;26.60;;;;;;;;;;5056161;28;20346;-78
2022/11/29 03:52:39;;;;;;;61.60;28.53;;;;;;;;;;5051393;28;20025;-78
2022/11/29 03:55:21;;;;;;;69.67;30.80;;;;;;;;;;5042048;28;20033;-79
2022/11/29 03:57:47;;;;;;;67.40;30.00;;;;;;;;;;5054915;28;20028;-79
2022/11/29 04:00:13;;;;;;;77.77;31.60;;;;;;;;;;5054504;28;20025;-79
2022/11/29 04:02:51;;;;;;;69.97;30.50;;;;;;;;;;5053907;28;20032;-78
2022/11/29 04:05:17;;;;;;;86.40;33.90;;;;;;;;;;5054924;28;20032;-78
2022/11/29 04:07:49;;;;;;;80.63;31.80;;;;;;;;;;5054975;28;20517;-78
2022/11/29 04:10:25;;;;;;;89.32;33.40;;;;;;;;;;5047006;28;20029;-78
2022/11/29 04:12:51;;;;;;;94.77;32.13;;;;;;;;;;5050910;28;20033;-79
2022/11/29 04:15:17;;;;;;;71.40;31.80;;;;;;;;;;5043517;28;20488;-79
2022/11/29 04:17:56;;;;;;;79.67;32.67;;;;;;;;;;5039327;28;20026;-79
2022/11/29 04:20:22;;;;;;;83.10;33.87;;;;;;;;;;5059837;28;20425;-78
2022/11/29 04:23:06;;;;;;;82.03;33.83;;;;;;;;;;5040423;28;20041;-79
2022/11/29 04:25:51;;;;;;;87.50;34.40;;;;;;;;;;5044871;28;20029;-79
2022/11/29 04:28:17;;;;;;;96.13;35.43;;;;;;;;;;5051111;28;20094;-79
2022/11/29 04:31:01;;;;;;;100.40;35.90;;;;;;;;;;5060880;28;20033;-79
2022/11/29 04:33:41;;;;;;;90.93;34.37;;;;;;;;;;5050624;28;20030;-79
2022/11/29 04:36:16;;;;;;;91.27;34.93;;;;;;;;;;5046686;28;20116;-80
2022/11/29 04:38:48;;;;;;;99.47;36.23;;;;;;;;;;5048700;28;20471;-79
2022/11/29 04:41:20;;;;;;;103.28;36.75;;;;;;;;;;5050756;28;20029;-78
2022/11/29 04:43:46;;;;;;;101.68;35.55;;;;;;;;;;5050134;28;20021;-79
2022/11/29 04:46:18;;;;;;;101.70;35.57;;;;;;;;;;5046288;28;20052;-80
2022/11/29 04:48:47;;;;;;;104.22;39.20;;;;;;;;;;5062073;28;20025;-80
2022/11/29 04:51:32;;;;;;;110.23;39.33;;;;;;;;;;5054026;28;20031;-79
2022/11/29 04:54:08;;;;;;;102.43;37.67;;;;;;;;;;5053530;28;20037;-79
2022/11/29 04:56:34;;;;;;;119.13;41.10;;;;;;;;;;5044796;28;20033;-79
2022/11/29 04:59:00;;;;;;;110.67;39.50;;;;;;;;;;5051303;28;20025;-79
2022/11/29 05:01:45;;;;;;;99.20;38.27;;;;;;;;;;5046819;28;20431;-79
2022/11/29 05:04:17;;;;;;;110.43;36.03;;;;;;;;;;5049160;28;20421;-78
2022/11/29 05:06:46;;;;;;;98.55;38.28;;;;;;;;;;5059248;28;20104;-79
2022/11/29 05:09:15;;;;;;;119.33;41.47;;;;;;;;;;5054640;28;20033;-79
2022/11/29 05:12:01;;;;;;;107.00;39.20;;;;;;;;;;5066258;28;20434;-79
2022/11/29 05:14:27;;;;;;;129.77;41.30;;;;;;;;;;5042169;28;20033;-78
2022/11/29 05:16:57;;;;;;;121.47;40.47;;;;;;;;;;5051778;28;20041;-78
2022/11/29 05:19:29;;;;;;;144.10;44.93;;;;;;;;;;5051437;28;20029;-79
2022/11/29 05:21:59;;;;;;;142.13;44.43;;;;;;;;;;5038182;28;20029;-79
2022/11/29 05:24:34;;;;;;;143.30;43.03;;;;;;;;;;5048183;28;20043;-79
2022/11/29 05:27:07;;;;;;;128.83;42.50;;;;;;;;;;5045742;28;20098;-80
2022/11/29 05:29:48;;;;;;;146.35;45.72;;;;;;;;;;5045628;28;20025;-79
2022/11/29 05:32:27;;;;;;;166.07;49.97;;;;;;;;;;5064126;28;20044;-78
2022/11/29 05:34:57;;;;;;;170.73;49.93;;;;;;;;;;5043989;28;20038;-78
2022/11/29 05:37:42;;;;;;;163.33;48.67;;;;;;;;;;5062682;28;20033;-78
2022/11/29 05:40:27;;;;;;;184.63;52.00;;;;;;;;;;5060079;28;20021;-78
2022/11/29 05:43:12;;;;;;;196.07;54.60;;;;;;;;;;5063257;28;20434;-77
2022/11/29 05:45:45;;;;;;;218.70;56.00;;;;;;;;;;5050285;28;20040;-78
2022/11/29 05:48:11;;;;;;;221.50;54.17;;;;;;;;;;5045492;28;20028;-78
2022/11/29 05:50:42;;;;;;;214.23;56.87;;;;;;;;;;5045070;28;20025;-77
2022/11/29 05:53:23;;;;;;;248.90;61.00;;;;;;;;;;5060128;28;20041;-78
2022/11/29 05:56:03;;;;;;;238.67;58.23;;;;;;;;;;5060363;28;20033;-78
2022/11/29 05:58:46;;;;;;;247.30;59.30;;;;;;;;;;5065051;28;20096;-79
2022/11/29 06:01:21;;;;;;;268.60;64.47;;;;;;;;;;5061795;28;20406;-78
2022/11/29 06:03:57;;;;;;;277.17;65.23;;;;;;;;;;5045996;28;20029;-79
2022/11/29 06:06:29;;;;;;;290.37;66.23;;;;;;;;;;5063116;28;20029;-78
2022/11/29 06:09:04;;;;;;;292.13;69.68;;;;;;;;;;5049481;28;20466;-78
2022/11/29 06:11:32;;;;;;;307.70;71.13;;;;;;;;;;5060696;28;20030;-78
2022/11/29 06:14:04;;;;;;;311.00;71.60;;;;;;;;;;5042476;28;20026;-78
2022/11/29 06:16:42;;;;;;;342.83;76.25;;;;;;;;;;5048136;28;20049;-78
2022/11/29 06:19:27;;;;;;;343.10;76.67;;;;;;;;;;5049924;28;20088;-79
2022/11/29 06:21:59;;;;;;;307.07;72.30;;;;;;;;;;5061299;28;20564;-78
2022/11/29 06:24:35;;;;;;;325.88;74.05;;;;;;;;;;5048171;28;20048;-77
2022/11/29 06:27:12;;;;;;;305.70;74.37;;;;;;;;;;5053589;28;20021;-78
2022/11/29 06:29:49;;;;;;;317.03;78.23;;;;;;;;;;5063840;28;20069;-77
2022/11/29 06:32:31;;;;;;;311.57;76.40;;;;;;;;;;5062607;28;20087;-77
2022/11/29 06:35:04;;;;;;;283.15;69.97;;;;;;;;;;5044154;28;20029;-77
2022/11/29 06:37:37;;;;;;;286.63;68.50;;;;;;;;;;5051111;28;20021;-77
2022/11/29 06:40:03;;;;;;;257.50;67.03;;;;;;;;;;5065623;28;20604;-76
2022/11/29 06:42:29;;;;;;;281.23;70.53;;;;;;;;;;5057281;28;20063;-77
2022/11/29 06:44:55;;;;;;;255.63;61.00;;;;;;;;;;5045476;28;20033;-77
2022/11/29 06:47:30;;;;;;;256.27;66.70;;;;;;;;;;5061730;28;21788;-78
2022/11/29 06:50:08;;;;;;;253.03;67.30;;;;;;;;;;5048987;28;20044;-78
2022/11/29 06:52:43;;;;;;;265.67;66.00;;;;;;;;;;5059730;28;20033;-78
2022/11/29 06:55:09;;;;;;;262.27;64.27;;;;;;;;;;5044783;28;20029;-77
2022/11/29 06:57:39;;;;;;;276.47;66.93;;;;;;;;;;5048770;28;20082;-77
2022/11/29 07:00:08;;;;;;;261.80;65.57;;;;;;;;;;5045757;28;20029;-78
2022/11/29 07:02:42;;;;;;;279.63;67.13;;;;;;;;;;5062769;28;20025;-77
2022/11/29 07:05:08;;;;;;;300.43;67.93;;;;;;;;;;5060838;28;20037;-77
2022/11/29 07:07:34;;;;;;;254.17;65.90;;;;;;;;;;5060142;28;20029;-77
2022/11/29 07:10:01;;;;;;;310.93;69.70;;;;;;;;;;5061593;28;20089;-78
2022/11/29 07:12:27;;;;;;;302.93;72.20;;;;;;;;;;5056963;28;20036;-78
2022/11/29 07:14:53;;;;;;;281.00;68.40;;;;;;;;;;5048144;28;20021;-78
2022/11/29 07:17:43;;;;;;;264.60;65.70;;;;;;;;;;5053357;28;20366;-77
2022/11/29 07:20:12;;;;;;;298.37;66.33;;;;;;;;;;5052372;28;20052;-76
2022/11/29 07:22:38;;;;;;;301.97;68.80;;;;;;;;;;5063471;28;20064;-76
2022/11/29 07:25:10;;;;;;;259.50;62.73;;;;;;;;;;5055775;28;20051;-78
2022/11/29 07:27:41;;;;;;;288.73;65.38;;;;;;;;;;5055569;28;20767;-77
2022/11/29 07:30:14;;;;;;;275.97;63.77;;;;;;;;;;5055672;28;20094;-77
2022/11/29 07:33:05;;;;;;;324.20;71.43;;;;;;;;;;5056138;28;20025;-77
2022/11/29 07:35:40;;;;;;;305.87;69.20;;;;;;;;;;5054964;28;20029;-77
2022/11/29 07:38:07;;;;;;;298.47;68.50;;;;;;;;;;5054148;28;20083;-77
2022/11/29 07:40:50;;;;;;;328.03;69.23;;;;;;;;;;5054859;28;20119;-77
2022/11/29 07:43:22;;;;;;;328.60;72.83;;;;;;;;;;5055902;28;20099;-77
2022/11/29 07:45:48;;;;;;;353.45;72.82;;;;;;;;;;5060512;28;20131;-77
2022/11/29 07:48:16;;;;;;;328.33;69.87;;;;;;;;;;5055683;28;20033;-78
2022/11/29 07:50:42;;;;;;;323.50;65.93;;;;;;;;;;5055003;28;20021;-78
2022/11/29 07:53:12;;;;;;;274.80;64.63;;;;;;;;;;5054845;28;20060;-78
2022/11/29 07:55:38;;;;;;;264.33;60.90;;;;;;;;;;5054832;28;20025;-78
2022/11/29 07:58:04;;;;;;;289.70;61.83;;;;;;;;;;5055230;28;20032;-77
2022/11/29 08:00:32;;;;;;;266.83;59.30;;;;;;;;;;5054529;28;20096;-77
2022/11/29 08:02:58;;;;;;;268.27;59.23;;;;;;;;;;5068908;28;20077;-77
2022/11/29 08:05:24;;;;;;;243.73;56.97;;;;;;;;;;5054415;28;20369;-78
2022/11/29 08:07:50;;;;;;;259.10;57.07;;;;;;;;;;5054182;28;20420;-78
2022/11/29 08:10:16;;;;;;;256.60;56.37;;;;;;;;;;5054539;28;20048;-76
2022/11/29 08:12:43;;;;;;;227.57;48.97;;;;;;;;;;5054226;28;20094;-78
2022/11/29 08:15:09;;;;;;;227.03;52.83;;;;;;;;;;5061064;28;20074;-77
2022/11/29 08:17:37;;;;;;;204.33;49.63;;;;;;;;;;5060392;28;20051;-77
2022/11/29 08:20:06;;;;;;;190.60;46.23;;;;;;;;;;5057978;28;20040;-77
2022/11/29 08:22:32;;;;;;;207.57;53.30;;;;;;;;;;5053921;28;20028;-75
2022/11/29 08:24:58;;;;;;;201.03;49.70;;;;;;;;;;5068447;28;20021;-77
2022/11/29 08:27:25;;;;;;;203.10;47.27;;;;;;;;;;5060294;28;20028;-77
2022/11/29 08:29:51;;;;;;;193.60;45.60;;;;;;;;;;5062536;28;20017;-78
2022/11/29 08:32:17;;;;;;;198.17;48.70;;;;;;;;;;5063195;28;20472;-77
2022/11/29 08:34:43;;;;;;;176.50;44.47;;;;;;;;;;5052351;28;20112;-77
2022/11/29 08:37:09;;;;;;;169.20;44.03;;;;;;;;;;5052762;28;20021;-77
2022/11/29 08:39:35;;;;;;;168.13;43.23;;;;;;;;;;5050469;28;20037;-77
2022/11/29 08:42:01;;;;;;;164.30;43.40;;;;;;;;;;5066850;28;20032;-78
2022/11/29 08:44:29;;;;;;;166.03;44.27;;;;;;;;;;5067000;28;20033;-77
2022/11/29 08:50:00;;;;;;;166.73;45.77;;;;;;;;;;5047265;28;20119;-78
2022/11/29 08:55:11;;;;;;;161.33;42.70;;;;;;;;;;5058784;28;20095;-78
2022/11/29 08:57:37;;;;;;;158.17;45.20;;;;;;;;;;5054126;28;20025;-78
2022/11/29 09:00:04;;;;;;;150.87;43.23;;;;;;;;;;5054590;28;20025;-79
2022/11/29 09:02:30;;;;;;;156.60;45.60;;;;;;;;;;5055433;28;20124;-78
2022/11/29 09:04:56;;;;;;;151.33;44.33;;;;;;;;;;5066287;28;20103;-79
2022/11/29 09:07:23;;;;;;;147.70;43.43;;;;;;;;;;5053991;28;20437;-78
2022/11/29 09:09:49;;;;;;;144.17;43.07;;;;;;;;;;5053604;28;20044;-77
2022/11/29 09:12:17;;;;;;;144.47;42.90;;;;;;;;;;5054540;28;20040;-77
2022/11/29 09:14:43;;;;;;;147.73;43.37;;;;;;;;;;5053436;28;20032;-78
2022/11/29 09:17:09;;;;;;;136.97;43.30;;;;;;;;;;5053572;28;20029;-77
2022/11/29 09:19:35;;;;;;;145.47;44.07;;;;;;;;;;5053253;28;20037;-78
2022/11/29 09:22:02;;;;;;;139.77;43.07;;;;;;;;;;5053576;28;20028;-78
2022/11/29 09:24:30;;;;;;;145.43;42.60;;;;;;;;;;5053351;28;20480;-78
2022/11/29 09:26:56;;;;;;;132.13;42.47;;;;;;;;;;5058040;28;20017;-78
2022/11/29 09:29:25;;;;;;;117.20;38.70;;;;;;;;;;5066786;28;20028;-77
2022/11/29 09:31:51;;;;;;;121.50;40.47;;;;;;;;;;5052927;28;20445;-77
2022/11/29 09:34:17;;;;;;;128.97;38.57;;;;;;;;;;5038436;28;20040;-78
2022/11/29 09:36:43;;;;;;;134.03;41.80;;;;;;;;;;5067572;28;20127;-79
2022/11/29 09:39:11;;;;;;;117.20;37.87;;;;;;;;;;5054101;28;20053;-77
2022/11/29 09:41:57;;;;;;;129.10;43.00;;;;;;;;;;5062694;28;20051;-78
2022/11/29 09:44:29;;;;;;;139.67;42.60;;;;;;;;;;5033776;28;20040;-78
2022/11/29 09:47:01;;;;;;;119.38;40.20;;;;;;;;;;5047239;28;20057;-79
2022/11/29 09:49:43;;;;;;;116.75;39.80;;;;;;;;;;5047982;28;20033;-77
2022/11/29 09:52:09;;;;;;;143.57;43.43;;;;;;;;;;5053370;28;20041;-78
2022/11/29 09:54:43;;;;;;;116.23;37.97;;;;;;;;;;5053155;28;20029;-78
2022/11/29 09:57:10;;;;;;;113.03;36.57;;;;;;;;;;5047596;28;20036;-77
2022/11/29 09:59:38;;;;;;;98.33;37.57;;;;;;;;;;5043915;28;20025;-77
2022/11/29 10:02:11;;;;;;;121.27;37.27;;;;;;;;;;5069116;28;20024;-78
2022/11/29 10:04:40;;;;;;;115.73;36.63;;;;;;;;;;5057868;28;20083;-79
2022/11/29 10:07:13;;;;;;;122.93;39.10;;;;;;;;;;5056822;28;20032;-78
2022/11/29 10:09:42;;;;;;;126.90;37.42;;;;;;;;;;5068429;28;20457;-80
2022/11/29 10:12:17;;;;;;;122.23;39.43;;;;;;;;;;5065549;28;20028;-78
2022/11/29 10:14:47;;;;;;;113.63;37.20;;;;;;;;;;5037027;28;20053;-78
2022/11/29 10:17:19;;;;;;;103.23;33.80;;;;;;;;;;5036698;28;20032;-76
2022/11/29 10:19:57;;;;;;;116.80;38.53;;;;;;;;;;5057868;28;20565;-78
2022/11/29 10:22:44;;;;;;;109.33;37.83;;;;;;;;;;5057788;28;20472;-78
2022/11/29 10:25:16;;;;;;;105.90;34.70;;;;;;;;;;5062896;28;20386;-77
2022/11/29 10:27:42;;;;;;;101.18;34.95;;;;;;;;;;5063570;28;20037;-77
2022/11/29 10:30:12;;;;;;;105.40;36.00;;;;;;;;;;5056283;28;20036;-78
2022/11/29 10:32:39;;;;;;;102.73;35.67;;;;;;;;;;5056342;28;22381;-78
2022/11/29 10:35:14;;;;;;;120.33;36.77;;;;;;;;;;5056612;28;20052;-78
2022/11/29 10:37:40;;;;;;;92.67;32.87;;;;;;;;;;5056847;28;20079;-78
2022/11/29 10:40:11;;;;;;;104.17;35.63;;;;;;;;;;5056584;28;20028;-78
2022/11/29 10:42:53;;;;;;;123.60;35.67;;;;;;;;;;5053087;28;20017;-78
2022/11/29 10:45:22;;;;;;;103.83;36.37;;;;;;;;;;5050507;28;20025;-78
2022/11/29 10:47:49;;;;;;;93.80;32.33;;;;;;;;;;5056097;28;20461;-78
2022/11/29 10:50:20;;;;;;;77.20;30.70;;;;;;;;;;5072689;28;20035;-77
2022/11/29 10:52:46;;;;;;;63.73;25.10;;;;;;;;;;5061615;28;20110;-77
2022/11/29 10:55:14;;;;;;;68.23;27.50;;;;;;;;;;5064170;28;20021;-78
2022/11/29 10:57:59;;;;;;;72.57;28.07;;;;;;;;;;5071174;28;20025;-78
2022/11/29 11:00:27;;;;;;;63.40;25.90;;;;;;;;;;5065318;28;20399;-76
2022/11/29 11:02:53;;;;;;;69.87;27.47;;;;;;;;;;5055940;28;20025;-78
2022/11/29 11:05:25;;;;;;;71.57;26.70;;;;;;;;;;5056078;28;20032;-79
2022/11/29 11:07:57;;;;;;;59.05;25.80;;;;;;;;;;5059798;28;20583;-77
2022/11/29 11:10:27;;;;;;;61.35;24.77;;;;;;;;;;5056984;28;20099;-78
2022/11/29 11:13:01;;;;;;;61.73;24.57;;;;;;;;;;5069827;28;20605;-78
2022/11/29 11:15:28;;;;;;;58.57;26.00;;;;;;;;;;5052081;28;20160;-78
2022/11/29 11:17:58;;;;;;;64.67;26.70;;;;;;;;;;5045445;28;20029;-78
2022/11/29 11:20:24;;;;;;;59.77;25.60;;;;;;;;;;5048472;28;20188;-78
2022/11/29 11:22:58;;;;;;;66.77;25.03;;;;;;;;;;5047518;28;20036;-78
2022/11/29 11:25:25;;;;;;;62.27;25.10;;;;;;;;;;5049393;28;20024;-77
2022/11/29 11:27:51;;;;;;;62.40;26.10;;;;;;;;;;5048417;28;20021;-77
2022/11/29 11:30:18;;;;;;;59.27;24.83;;;;;;;;;;5047698;28;20071;-78
2022/11/29 11:33:03;;;;;;;60.90;26.40;;;;;;;;;;5044349;28;20033;-78
2022/11/29 11:35:29;;;;;;;62.83;26.70;;;;;;;;;;5044121;28;20064;-78
2022/11/29 11:37:58;;;;;;;61.00;26.23;;;;;;;;;;5063880;28;20036;-78
2022/11/29 11:40:25;;;;;;;54.83;23.80;;;;;;;;;;5048135;28;20099;-79
2022/11/29 11:42:52;;;;;;;68.37;25.57;;;;;;;;;;5044023;28;20037;-78
2022/11/29 11:45:30;;;;;;;58.80;24.23;;;;;;;;;;5060269;28;20537;-79
2022/11/29 11:47:58;;;;;;;67.50;25.53;;;;;;;;;;5059488;28;20033;-76
2022/11/29 11:50:26;;;;;;;55.50;22.30;;;;;;;;;;5063367;28;20028;-78
2022/11/29 11:52:55;;;;;;;57.37;24.27;;;;;;;;;;5051419;28;20086;-78
2022/11/29 11:55:22;;;;;;;65.23;24.63;;;;;;;;;;5060201;28;20393;-77
2022/11/29 11:58:06;;;;;;;64.93;24.37;;;;;;;;;;5060207;28;20044;-77
2022/11/29 12:00:38;;;;;;;61.80;23.30;;;;;;;;;;5045213;28;20135;-77
2022/11/29 12:03:05;;;;;;;71.55;25.35;;;;;;;;;;5044959;28;20446;-78
2022/11/29 12:05:31;;;;;;;68.10;26.37;;;;;;;;;;5050539;28;20034;-76
2022/11/29 12:08:02;;;;;;;61.23;24.13;;;;;;;;;;5057172;28;20446;-78
2022/11/29 12:10:33;;;;;;;65.83;25.90;;;;;;;;;;5064463;28;20032;-78
2022/11/29 12:13:00;;;;;;;81.40;26.90;;;;;;;;;;5057521;28;20109;-78
2022/11/29 12:15:32;;;;;;;64.17;23.93;;;;;;;;;;5057907;28;21728;-78
2022/11/29 12:18:03;;;;;;;59.88;24.42;;;;;;;;;;5063148;28;20583;-78
2022/11/29 12:20:33;;;;;;;64.20;24.73;;;;;;;;;;5045348;28;20051;-77
2022/11/29 12:23:05;;;;;;;71.23;25.23;;;;;;;;;;5063489;28;21844;-78
2022/11/29 12:25:52;;;;;;;73.13;26.60;;;;;;;;;;5044933;28;20063;-78
2022/11/29 12:28:18;;;;;;;82.37;28.20;;;;;;;;;;5055277;28;20028;-76
2022/11/29 12:30:57;;;;;;;68.83;27.80;;;;;;;;;;5043389;28;20035;-78
2022/11/29 12:33:23;;;;;;;74.63;29.53;;;;;;;;;;5053996;28;20078;-77
2022/11/29 12:35:49;;;;;;;79.50;31.53;;;;;;;;;;5061949;28;20424;-77
2022/11/29 12:38:25;;;;;;;66.33;28.83;;;;;;;;;;5043126;28;20052;-76
2022/11/29 12:41:10;;;;;;;77.03;30.13;;;;;;;;;;5065086;28;20025;-78
2022/11/29 12:43:39;;;;;;;73.20;29.43;;;;;;;;;;5058543;28;20099;-77
2022/11/29 12:46:05;;;;;;;79.50;28.87;;;;;;;;;;5044703;28;20037;-78
2022/11/29 12:48:54;;;;;;;82.90;32.77;;;;;;;;;;5058514;28;20094;-77
2022/11/29 12:51:39;;;;;;;81.57;32.73;;;;;;;;;;5036035;28;20036;-76
2022/11/29 12:54:11;;;;;;;83.23;33.43;;;;;;;;;;5063560;28;20039;-77
2022/11/29 12:56:41;;;;;;;83.60;32.25;;;;;;;;;;5044914;28;20017;-77
2022/11/29 12:59:29;;;;;;;78.77;29.67;;;;;;;;;;5050866;28;20025;-78
2022/11/29 13:01:58;;;;;;;83.57;33.10;;;;;;;;;;5046007;28;20051;-77
2022/11/29 13:04:24;;;;;;;80.47;31.57;;;;;;;;;;5049058;28;20033;-77
2022/11/29 13:06:56;;;;;;;73.70;30.80;;;;;;;;;;5043699;28;20025;-78
2022/11/29 13:09:34;;;;;;;83.03;32.33;;;;;;;;;;5062500;28;20032;-78
2022/11/29 13:12:17;;;;;;;83.80;31.67;;;;;;;;;;5045715;28;20043;-78
2022/11/29 13:14:43;;;;;;;;;;;;;;;;;;5061285;28;20030;-77
2022/11/29 13:17:33;;;;;;;85.50;34.73;;;;;;;;;;5055800;28;19908;-78
2022/11/29 13:20:06;;;;;;;79.80;33.17;;;;;;;;;;5053811;28;20028;-77
2022/11/29 13:22:35;;;;;;;85.30;35.27;;;;;;;;;;5054044;28;20025;-79
2022/11/29 13:25:03;;;;;;;81.43;32.23;;;;;;;;;;5067555;28;20193;-76
2022/11/29 13:27:34;;;;;;;79.23;33.70;;;;;;;;;;5069471;28;20036;-78
2022/11/29 13:30:01;;;;;;;81.07;32.50;;;;;;;;;;5043416;28;20111;-78
2022/11/29 13:32:39;;;;;;;81.93;33.80;;;;;;;;;;5070685;28;20060;-78
2022/11/29 13:35:11;;;;;;;83.53;34.80;;;;;;;;;;5057394;28;20032;-78
2022/11/29 13:37:44;;;;;;;90.15;35.42;;;;;;;;;;5066488;28;20032;-77
2022/11/29 13:40:21;;;;;;;73.67;32.07;;;;;;;;;;5057008;28;20029;-77
2022/11/29 13:42:53;;;;;;;83.30;32.17;;;;;;;;;;5061622;28;20028;-79
2022/11/29 13:45:40;;;;;;;93.50;35.83;;;;;;;;;;5071892;28;20040;-78
2022/11/29 13:48:24;;;;;;;87.43;33.27;;;;;;;;;;5058519;28;20059;-78
2022/11/29 13:50:50;;;;;;;82.97;34.20;;;;;;;;;;5041255;28;20033;-78
2022/11/29 13:53:23;;;;;;;79.33;33.03;;;;;;;;;;5057395;28;20060;-78
2022/11/29 13:55:58;;;;;;;89.18;32.05;;;;;;;;;;5068128;28;20530;-79
2022/11/29 13:58:27;;;;;;;78.90;32.27;;;;;;;;;;5067601;28;20074;-78
2022/11/29 14:01:01;;;;;;;82.97;33.77;;;;;;;;;;5072943;28;20078;-77
2022/11/29 14:03:29;;;;;;;75.87;32.07;;;;;;;;;;5071090;28;20492;-78
2022/11/29 14:06:01;;;;;;;77.87;32.93;;;;;;;;;;5072040;28;20029;-79
2022/11/29 14:08:33;;;;;;;76.22;31.98;;;;;;;;;;5057139;28;20055;-78
2022/11/29 14:11:14;;;;;;;70.57;31.50;;;;;;;;;;5059588;28;20032;-77
2022/11/29 14:13:40;;;;;;;80.63;32.10;;;;;;;;;;5067482;28;20388;-78
2022/11/29 14:16:14;;;;;;;80.10;34.47;;;;;;;;;;5058829;28;20417;-79
2022/11/29 14:18:48;;;;;;;88.83;34.00;;;;;;;;;;5068219;28;20134;-78
2022/11/29 14:21:14;;;;;;;72.73;31.17;;;;;;;;;;5056379;28;20025;-78
2022/11/29 14:23:45;;;;;;;82.83;32.90;;;;;;;;;;5065005;28;20032;-78
2022/11/29 14:26:11;;;;;;;84.47;34.07;;;;;;;;;;5062638;28;20036;-77
2022/11/29 14:28:38;;;;;;;83.43;34.90;;;;;;;;;;5070396;28;20017;-78
2022/11/29 14:31:10;;;;;;;82.80;32.10;;;;;;;;;;5056352;28;20021;-77
2022/11/29 14:33:36;;;;;;;89.25;34.00;;;;;;;;;;5056346;28;20347;-78
2022/11/29 14:36:16;;;;;;;87.63;34.60;;;;;;;;;;5068542;28;20032;-78
2022/11/29 14:38:48;;;;;;;81.27;33.13;;;;;;;;;;5060874;28;20024;-77
2022/11/29 14:41:20;;;;;;;87.35;32.95;;;;;;;;;;5056368;28;20346;-76
2022/11/29 14:43:46;;;;;;;82.10;33.70;;;;;;;;;;5058252;28;20025;-78